Terminal Aerodrome Forecast
Issued by NWS Duluth, MN

Home | Current Version | Previous Version | Text Only | Print | Product List | Glossary On
Versions: 1 2 3 4 5 6 7 8 9 10 11 12 13 14 15 16 17 18 19 20 21 22 23 24 25 26 27 28 29 30
000
FTUS43 KDLH 230359 AAB
TAFDLH
TAF AMD
KDLH 230359Z 2304/2324 36011KT P6SM VCSH SCT070
     FM230800 02007KT P6SM -SHRA OVC015
     FM231000 03007KT 4SM -RASN OVC008
     FM231400 07010KT P6SM VCSH OVC012
     FM232100 09011KT P6SM SCT015 BKN025=

USA.gov is the U.S. government's official web portal to all federal, state and local government web resources and services.